Boris Syromyatnikov — UCUF — position and weather

sailwx.info

Track history (hours):
 
Tides and Currents Weather Stations Pressure Air Temp Water Temp Dewpoint Dewpoint Depression Visibility Wind Speed Wind Dir Waves Ship Positions

Boris Syromyatnikov

Last reported at 2014-Oct-20 09:08 UTC. Time now 2014-Oct-26 09:34 UTC.
Position N 72°23' E 018°13'.

Length 120 m; beam 19 m.

Type: Fishing. MMSI: 273529800.

Date/timePositionNaut miles runAvg speedWind from/ knotsBaromVisibWave heightAir tempDewpointWater temp
2014-Oct-20 09:08N 72°23' E 018°13'2 3.4
2014-Oct-20 08:25N 72°21' E 018°18'4 4.1
2014-Oct-20 07:31N 72°18' E 018°17'1 1.1
2014-Oct-20 06:31N 72°17' E 018°15'4 4.4
2014-Oct-20 05:31N 72°21' E 018°22'2 1.6
2014-Oct-20 04:28N 72°19' E 018°19'2 1.7
2014-Oct-20 03:31N 72°21' E 018°18'2 2.2
2014-Oct-20 02:31N 72°19' E 018°15'5 4.6
2014-Oct-20 01:31N 72°20' E 018°29'1 0.8
2014-Oct-20 00:31N 72°21' E 018°32'8 7.8
2014-Oct-19 23:31N 72°14' E 018°18'8 7.5
2014-Oct-19 22:31N 72°15' E 017°54'9 9.3
2014-Oct-19 21:31N 72°24' E 018°01'2 2.3
2014-Oct-19 20:32N 72°24' E 018°08'4 3.5
2014-Oct-19 19:29N 72°24' E 018°20'4 4.7
2014-Oct-19 18:32N 72°23' E 018°35'4 3.5
2014-Oct-19 17:26N 72°23' E 018°48'8 6.9
2014-Oct-19 16:17N 72°26' E 018°23'2 1.8
2014-Oct-19 15:14N 72°24' E 018°24'3 4.2
2014-Oct-19 14:32N 72°26' E 018°28'4 4.2
2014-Oct-19 13:32N 72°27' E 018°42'4 4.0
2014-Oct-19 12:32N 72°30' E 018°53'3 3.4
2014-Oct-19 11:32N 72°30' E 019°04'9 8.9
2014-Oct-19 10:29N 72°26' E 018°36'3 3.0
2014-Oct-19 09:32N 72°28' E 018°31'6 5.9
2014-Oct-19 08:32N 72°29' E 018°50'2 1.6
2014-Oct-19 07:32N 72°30' E 018°53'4 3.8
2014-Oct-19 06:32N 72°32' E 018°42'2 2.3
2014-Oct-19 05:32N 72°30' E 018°37'4 4.2
2014-Oct-19 04:32N 72°32' E 018°49'1 1.1
2014-Oct-19 03:32N 72°31' E 018°47'2 1.8
2014-Oct-19 02:32N 72°33' E 018°50'3 2.6
2014-Oct-19 01:32N 72°31' E 018°47'4 3.9
2014-Oct-19 00:29N 72°28' E 018°36'4 4.4
2014-Oct-18 23:32N 72°25' E 018°45'0 0.2
2014-Oct-18 22:29N 72°25' E 018°44'8 8.0
2014-Oct-18 21:29N 72°31' E 018°27'13 4.6
2014-Oct-18 18:32N 72°44' E 018°17'5 4.1
2014-Oct-18 17:20N 72°49' E 018°11'1 1.4
2014-Oct-18 16:32N 72°48' E 018°12'4 3.6
2014-Oct-18 15:32N 72°44' E 018°13'10 9.6
2014-Oct-18 14:32N 72°36' E 018°28'9 8.6
2014-Oct-18 13:32N 72°32' E 018°54'5 4.6
2014-Oct-18 12:32N 72°32' E 019°09'7 3.3
2014-Oct-18 10:29N 72°38' E 019°12'4 4.2
2014-Oct-18 09:32N 72°39' E 018°59'2 2.2
2014-Oct-18 08:32N 72°41' E 018°57'4 3.6
2014-Oct-18 07:26N 72°37' E 018°55'4 4.1
2014-Oct-18 06:32N 72°34' E 018°46'5 3.9
2014-Oct-18 05:20N 72°34' E 018°31'2 2.6
2014-Oct-18 04:32N 72°34' E 018°38'1 0.8
2014-Oct-18 03:23N 72°35' E 018°39'4 3.1
2014-Oct-18 02:14N 72°38' E 018°47'2 3.3
2014-Oct-18 01:32N 72°37' E 018°54'2 1.8
2014-Oct-18 00:29N 72°37' E 019°01'5 4.8
2014-Oct-17 23:32N 72°38' E 018°46'3 2.5
2014-Oct-17 22:11N 72°36' E 018°37'8 1.7
2014-Oct-17 17:20N 72°33' E 018°12'5 2.3
2014-Oct-17 15:23N 72°33' E 017°57'7 6.4
2014-Oct-17 14:20N 72°40' E 017°55'5 3.0
2014-Oct-17 12:32N 72°34' E 017°53'7 5.5
2014-Oct-17 11:11N 72°42' E 017°53'4 3.8
2014-Oct-17 10:14N 72°45' E 017°52'3 4.3
2014-Oct-17 09:32N 72°48' E 017°55'5 4.3
2014-Oct-17 08:17N 72°52' E 017°45'3 4.1
2014-Oct-17 07:32N 72°55' E 017°41'4 4.1
2014-Oct-17 06:32N 72°59' E 017°45'1 0.8
2014-Oct-17 05:32N 72°59' E 017°42'7 6.8
2014-Oct-17 04:26N 72°53' E 017°27'3 3.3
2014-Oct-17 03:32N 72°56' E 017°30'4 4.1
2014-Oct-17 02:32N 72°58' E 017°18'4 4.4
2014-Oct-17 01:32N 72°57' E 017°03'3 2.8
2014-Oct-17 00:32N 72°54' E 017°07'4 3.6
2014-Oct-16 23:29N 72°58' E 017°10'0 0.5
2014-Oct-16 22:32N 72°59' E 017°10'4 4.0
2014-Oct-16 21:32N 72°55' E 017°14'1 0.5
2014-Oct-16 20:32N 72°55' E 017°13'5 4.7
2014-Oct-16 19:32N 72°59' E 017°18'3 3.3
2014-Oct-16 18:32N 72°58' E 017°07'3 3.1
2014-Oct-16 17:29N 73°00' E 016°58'5 4.2
2014-Oct-16 16:23N 72°56' E 017°03'5 5.8
2014-Oct-16 15:32N 72°51' E 017°09'3 3.4
2014-Oct-16 14:32N 72°49' E 017°01'4 4.3
2014-Oct-16 13:32N 72°46' E 016°50'4 3.9
2014-Oct-16 12:32N 72°44' E 016°39'3 3.3
2014-Oct-16 11:32N 72°46' E 016°48'3 3.0
2014-Oct-16 10:32N 72°48' E 016°54'4 3.6
2014-Oct-16 09:32N 72°46' E 016°44'3 2.3
2014-Oct-16 08:26N 72°46' E 016°36'2 2.6
2014-Oct-16 07:32N 72°46' E 016°44'6 6.1
2014-Oct-16 06:32N 72°50' E 016°29'4 3.6
2014-Oct-16 05:32N 72°47' E 016°30'4 3.6
2014-Oct-16 04:32N 72°44' E 016°37'3 3.0
2014-Oct-16 03:32N 72°47' E 016°39'2 2.4
2014-Oct-16 02:32N 72°46' E 016°47'4 4.3
2014-Oct-16 01:32N 72°41' E 016°49'5 5.0
2014-Oct-16 00:32N 72°46' E 016°42'3 2.9
2014-Oct-15 23:32N 72°48' E 016°49'4 3.5
2014-Oct-15 22:20N 72°45' E 016°40'4 4.6
2014-Oct-15 21:32N 72°42' E 016°34'4 4.5
2014-Oct-15 20:32N 72°37' E 016°31'3 2.6
2014-Oct-15 19:32N 72°40' E 016°31'2 1.5
2014-Oct-15 18:32N 72°42' E 016°31'4 4.3
2014-Oct-15 17:32N 72°38' E 016°23'1 1.5
2014-Oct-15 16:32N 72°37' E 016°25'8 7.6
2014-Oct-15 15:32N 72°33' E 016°04'  
2014-Oct-12 18:31N 62°33' W 006°54'6 6.5
2014-Oct-12 17:33N 62°27' W 006°58'1311.9
2014-Oct-12 16:30N 62°16' W 006°46'2 2.3
2014-Oct-12 15:28N 62°14' W 006°48'0 0.0
2014-Oct-12 14:28N 62°14' W 006°48'0 0.0
2014-Oct-12 13:31N 62°14' W 006°48'0 0.0
2014-Oct-12 12:31N 62°14' W 006°48'0 0.0
2014-Oct-12 11:31N 62°14' W 006°48'0 0.0
2014-Oct-12 10:31N 62°14' W 006°48'0 0.0
2014-Oct-12 09:31N 62°14' W 006°48'1 1.3
2014-Oct-12 08:33N 62°14' W 006°45'  
Track history (hours):
 
Tides and Currents Weather Stations Pressure Air Temp Water Temp Dewpoint Dewpoint Depression Visibility Wind Speed Wind Dir Waves Ship Positions

Boris Syromyatnikov

Last reported at 2014-Oct-20 09:08 UTC. Time now 2014-Oct-26 09:34 UTC.
Position N 72°23' E 018°13'.

Length 120 m; beam 19 m.

Type: Fishing. MMSI: 273529800.

Date/timePositionNaut miles runAvg speedWind from/ knotsBaromVisibWave heightAir tempDewpointWater temp
2014-Oct-20 09:08N 72°23' E 018°13'2 3.4
2014-Oct-20 08:25N 72°21' E 018°18'4 4.1
2014-Oct-20 07:31N 72°18' E 018°17'1 1.1
2014-Oct-20 06:31N 72°17' E 018°15'4 4.4
2014-Oct-20 05:31N 72°21' E 018°22'2 1.6
2014-Oct-20 04:28N 72°19' E 018°19'2 1.7
2014-Oct-20 03:31N 72°21' E 018°18'2 2.2
2014-Oct-20 02:31N 72°19' E 018°15'5 4.6
2014-Oct-20 01:31N 72°20' E 018°29'1 0.8
2014-Oct-20 00:31N 72°21' E 018°32'8 7.8
2014-Oct-19 23:31N 72°14' E 018°18'8 7.5
2014-Oct-19 22:31N 72°15' E 017°54'9 9.3
2014-Oct-19 21:31N 72°24' E 018°01'2 2.3
2014-Oct-19 20:32N 72°24' E 018°08'4 3.5
2014-Oct-19 19:29N 72°24' E 018°20'4 4.7
2014-Oct-19 18:32N 72°23' E 018°35'4 3.5
2014-Oct-19 17:26N 72°23' E 018°48'8 6.9
2014-Oct-19 16:17N 72°26' E 018°23'2 1.8
2014-Oct-19 15:14N 72°24' E 018°24'3 4.2
2014-Oct-19 14:32N 72°26' E 018°28'4 4.2
2014-Oct-19 13:32N 72°27' E 018°42'4 4.0
2014-Oct-19 12:32N 72°30' E 018°53'3 3.4
2014-Oct-19 11:32N 72°30' E 019°04'9 8.9
2014-Oct-19 10:29N 72°26' E 018°36'3 3.0
2014-Oct-19 09:32N 72°28' E 018°31'6 5.9
2014-Oct-19 08:32N 72°29' E 018°50'2 1.6
2014-Oct-19 07:32N 72°30' E 018°53'4 3.8
2014-Oct-19 06:32N 72°32' E 018°42'2 2.3
2014-Oct-19 05:32N 72°30' E 018°37'4 4.2
2014-Oct-19 04:32N 72°32' E 018°49'1 1.1
2014-Oct-19 03:32N 72°31' E 018°47'2 1.8
2014-Oct-19 02:32N 72°33' E 018°50'3 2.6
2014-Oct-19 01:32N 72°31' E 018°47'4 3.9
2014-Oct-19 00:29N 72°28' E 018°36'4 4.4
2014-Oct-18 23:32N 72°25' E 018°45'0 0.2
2014-Oct-18 22:29N 72°25' E 018°44'8 8.0
2014-Oct-18 21:29N 72°31' E 018°27'13 4.6
2014-Oct-18 18:32N 72°44' E 018°17'5 4.1
2014-Oct-18 17:20N 72°49' E 018°11'1 1.4
2014-Oct-18 16:32N 72°48' E 018°12'4 3.6
2014-Oct-18 15:32N 72°44' E 018°13'10 9.6
2014-Oct-18 14:32N 72°36' E 018°28'9 8.6
2014-Oct-18 13:32N 72°32' E 018°54'5 4.6
2014-Oct-18 12:32N 72°32' E 019°09'7 3.3
2014-Oct-18 10:29N 72°38' E 019°12'4 4.2
2014-Oct-18 09:32N 72°39' E 018°59'2 2.2
2014-Oct-18 08:32N 72°41' E 018°57'4 3.6
2014-Oct-18 07:26N 72°37' E 018°55'4 4.1
2014-Oct-18 06:32N 72°34' E 018°46'5 3.9
2014-Oct-18 05:20N 72°34' E 018°31'2 2.6
2014-Oct-18 04:32N 72°34' E 018°38'1 0.8
2014-Oct-18 03:23N 72°35' E 018°39'4 3.1
2014-Oct-18 02:14N 72°38' E 018°47'2 3.3
2014-Oct-18 01:32N 72°37' E 018°54'2 1.8
2014-Oct-18 00:29N 72°37' E 019°01'5 4.8
2014-Oct-17 23:32N 72°38' E 018°46'3 2.5
2014-Oct-17 22:11N 72°36' E 018°37'8 1.7
2014-Oct-17 17:20N 72°33' E 018°12'5 2.3
2014-Oct-17 15:23N 72°33' E 017°57'7 6.4
2014-Oct-17 14:20N 72°40' E 017°55'5 3.0
2014-Oct-17 12:32N 72°34' E 017°53'7 5.5
2014-Oct-17 11:11N 72°42' E 017°53'4 3.8
2014-Oct-17 10:14N 72°45' E 017°52'3 4.3
2014-Oct-17 09:32N 72°48' E 017°55'5 4.3
2014-Oct-17 08:17N 72°52' E 017°45'3 4.1
2014-Oct-17 07:32N 72°55' E 017°41'4 4.1
2014-Oct-17 06:32N 72°59' E 017°45'1 0.8
2014-Oct-17 05:32N 72°59' E 017°42'7 6.8
2014-Oct-17 04:26N 72°53' E 017°27'3 3.3
2014-Oct-17 03:32N 72°56' E 017°30'4 4.1
2014-Oct-17 02:32N 72°58' E 017°18'4 4.4
2014-Oct-17 01:32N 72°57' E 017°03'3 2.8
2014-Oct-17 00:32N 72°54' E 017°07'4 3.6
2014-Oct-16 23:29N 72°58' E 017°10'0 0.5
2014-Oct-16 22:32N 72°59' E 017°10'4 4.0
2014-Oct-16 21:32N 72°55' E 017°14'1 0.5
2014-Oct-16 20:32N 72°55' E 017°13'5 4.7
2014-Oct-16 19:32N 72°59' E 017°18'3 3.3
2014-Oct-16 18:32N 72°58' E 017°07'3 3.1
2014-Oct-16 17:29N 73°00' E 016°58'5 4.2
2014-Oct-16 16:23N 72°56' E 017°03'5 5.8
2014-Oct-16 15:32N 72°51' E 017°09'3 3.4
2014-Oct-16 14:32N 72°49' E 017°01'4 4.3
2014-Oct-16 13:32N 72°46' E 016°50'4 3.9
2014-Oct-16 12:32N 72°44' E 016°39'3 3.3
2014-Oct-16 11:32N 72°46' E 016°48'3 3.0
2014-Oct-16 10:32N 72°48' E 016°54'4 3.6
2014-Oct-16 09:32N 72°46' E 016°44'3 2.3
2014-Oct-16 08:26N 72°46' E 016°36'2 2.6
2014-Oct-16 07:32N 72°46' E 016°44'6 6.1
2014-Oct-16 06:32N 72°50' E 016°29'4 3.6
2014-Oct-16 05:32N 72°47' E 016°30'4 3.6
2014-Oct-16 04:32N 72°44' E 016°37'3 3.0
2014-Oct-16 03:32N 72°47' E 016°39'2 2.4
2014-Oct-16 02:32N 72°46' E 016°47'4 4.3
2014-Oct-16 01:32N 72°41' E 016°49'5 5.0
2014-Oct-16 00:32N 72°46' E 016°42'3 2.9
2014-Oct-15 23:32N 72°48' E 016°49'4 3.5
2014-Oct-15 22:20N 72°45' E 016°40'4 4.6
2014-Oct-15 21:32N 72°42' E 016°34'4 4.5
2014-Oct-15 20:32N 72°37' E 016°31'3 2.6
2014-Oct-15 19:32N 72°40' E 016°31'2 1.5
2014-Oct-15 18:32N 72°42' E 016°31'4 4.3
2014-Oct-15 17:32N 72°38' E 016°23'1 1.5
2014-Oct-15 16:32N 72°37' E 016°25'8 7.6
2014-Oct-15 15:32N 72°33' E 016°04'  
2014-Oct-12 18:31N 62°33' W 006°54'6 6.5
2014-Oct-12 17:33N 62°27' W 006°58'1311.9
2014-Oct-12 16:30N 62°16' W 006°46'2 2.3
2014-Oct-12 15:28N 62°14' W 006°48'0 0.0
2014-Oct-12 14:28N 62°14' W 006°48'0 0.0
2014-Oct-12 13:31N 62°14' W 006°48'0 0.0
2014-Oct-12 12:31N 62°14' W 006°48'0 0.0
2014-Oct-12 11:31N 62°14' W 006°48'0 0.0
2014-Oct-12 10:31N 62°14' W 006°48'0 0.0
2014-Oct-12 09:31N 62°14' W 006°48'1 1.3
2014-Oct-12 08:33N 62°14' W 006°45'  

Dump ship's entire track history